createdAt,value
2024-05-09T00:00:22.148Z,5.30
2024-05-09T00:01:16.489Z,4.80
2024-05-09T00:02:15.450Z,5.10
2024-05-09T00:03:15.480Z,4.80
2024-05-09T00:04:15.493Z,5.40
2024-05-09T00:05:15.534Z,4.90
2024-05-09T00:06:15.446Z,5.30
2024-05-09T00:07:15.409Z,5.50
2024-05-09T00:08:15.457Z,5.10
2024-05-09T00:09:15.383Z,5.10
2024-05-09T00:10:25.043Z,4.90
2024-05-09T00:11:16.385Z,5.20
2024-05-09T00:12:15.471Z,4.40
2024-05-09T00:13:15.331Z,5.00
2024-05-09T00:14:15.370Z,5.20
2024-05-09T00:15:15.306Z,5.10
2024-05-09T00:16:15.295Z,4.50
2024-05-09T00:17:15.421Z,4.80
2024-05-09T00:18:15.424Z,5.10
2024-05-09T00:19:15.370Z,5.10
2024-05-09T00:20:20.505Z,5.00
2024-05-09T00:21:16.325Z,5.40
2024-05-09T00:22:15.248Z,5.30
2024-05-09T00:23:15.303Z,4.80
2024-05-09T00:24:15.202Z,5.20
2024-05-09T00:25:15.194Z,6.20
2024-05-09T00:26:15.224Z,5.40
2024-05-09T00:27:15.178Z,5.80
2024-05-09T00:28:15.193Z,5.50
2024-05-09T00:29:15.199Z,6.70
2024-05-09T00:30:24.133Z,6.20
2024-05-09T00:31:16.136Z,6.10
2024-05-09T00:32:15.219Z,5.90
2024-05-09T00:33:15.265Z,5.40
2024-05-09T00:34:15.184Z,5.70
2024-05-09T00:35:15.187Z,5.70
2024-05-09T00:36:15.072Z,5.50
2024-05-09T00:37:15.090Z,4.90
2024-05-09T00:38:15.092Z,4.80
2024-05-09T00:39:15.041Z,5.10
2024-05-09T00:40:22.771Z,5.00
2024-05-09T00:41:18.937Z,5.40
2024-05-09T00:42:15.030Z,4.90
2024-05-09T00:43:15.522Z,4.80
2024-05-09T00:44:15.025Z,4.40
2024-05-09T00:45:14.984Z,4.40
2024-05-09T00:46:14.978Z,5.00
2024-05-09T00:47:15.056Z,5.00
2024-05-09T00:48:17.712Z,4.70
2024-05-09T00:49:15.075Z,4.70
2024-05-09T00:50:19.419Z,4.70
2024-05-09T00:51:16.030Z,4.30
2024-05-09T00:52:14.907Z,4.70
2024-05-09T00:53:15.227Z,4.40
2024-05-09T00:54:14.883Z,4.70
2024-05-09T00:55:14.868Z,4.50
2024-05-09T00:56:14.908Z,5.00
2024-05-09T00:57:14.850Z,4.90
2024-05-09T00:58:14.863Z,4.50
2024-05-09T00:59:14.845Z,4.60
2024-05-09T01:00:25.995Z,4.50
2024-05-09T01:01:15.896Z,4.50
2024-05-09T01:02:14.897Z,4.50
2024-05-09T01:03:15.009Z,4.70
2024-05-09T01:04:14.787Z,4.30
2024-05-09T01:05:14.872Z,4.40
2024-05-09T01:06:14.750Z,4.10
2024-05-09T01:07:14.736Z,4.60
2024-05-09T01:08:14.836Z,4.60
2024-05-09T01:09:14.731Z,4.70
2024-05-09T01:10:21.165Z,4.30
2024-05-09T01:11:15.884Z,4.30
2024-05-09T01:12:15.011Z,4.30
2024-05-09T01:13:14.683Z,4.90
2024-05-09T01:14:14.741Z,4.30
2024-05-09T01:15:14.680Z,4.50
2024-05-09T01:16:14.648Z,4.80
2024-05-09T01:17:14.723Z,4.50
2024-05-09T01:18:14.966Z,4.40
2024-05-09T01:19:14.843Z,4.50
2024-05-09T01:20:20.193Z,4.50
2024-05-09T01:21:15.765Z,4.30
2024-05-09T01:22:14.581Z,4.30
2024-05-09T01:23:16.140Z,4.80
2024-05-09T01:24:14.590Z,5.10
2024-05-09T01:25:14.554Z,4.80
2024-05-09T01:26:14.603Z,4.80
2024-05-09T01:27:14.533Z,5.00
2024-05-09T01:28:14.539Z,5.00
2024-05-09T01:29:14.547Z,5.00
2024-05-09T01:30:17.465Z,5.10
2024-05-09T01:31:15.484Z,4.80
2024-05-09T01:32:14.620Z,4.60
2024-05-09T01:33:14.828Z,5.20
2024-05-09T01:34:14.507Z,5.40
2024-05-09T01:35:14.501Z,4.70
2024-05-09T01:36:14.443Z,5.10
2024-05-09T01:37:14.425Z,5.00
2024-05-09T01:38:14.504Z,4.40
2024-05-09T01:39:14.411Z,4.80
2024-05-09T01:40:18.633Z,4.70
2024-05-09T01:41:15.450Z,5.10
2024-05-09T01:42:14.389Z,5.30
2024-05-09T01:43:14.376Z,5.10
2024-05-09T01:44:14.400Z,5.50
2024-05-09T01:45:14.344Z,5.20
2024-05-09T01:46:14.332Z,5.30
2024-05-09T01:47:14.458Z,5.30
2024-05-09T01:48:14.481Z,4.70
2024-05-09T01:49:14.536Z,4.80
2024-05-09T01:51:14.413Z,5.40
2024-05-09T01:52:14.287Z,5.00
2024-05-09T01:53:15.142Z,5.80
2024-05-09T01:54:14.254Z,4.70
2024-05-09T01:55:14.235Z,4.90
2024-05-09T01:56:14.318Z,5.20
2024-05-09T01:57:14.228Z,4.80
2024-05-09T01:58:14.208Z,4.90
2024-05-09T01:59:14.364Z,5.20
2024-05-09T02:00:22.097Z,4.60
2024-05-09T02:01:15.261Z,4.70
2024-05-09T02:02:14.291Z,4.80
2024-05-09T02:03:16.619Z,5.10
2024-05-09T02:04:14.410Z,5.40
2024-05-09T02:05:14.314Z,5.50
2024-05-09T02:06:14.208Z,5.60
2024-05-09T02:07:14.107Z,5.20
2024-05-09T02:08:14.162Z,5.30
2024-05-09T02:09:14.090Z,5.50
2024-05-09T02:10:20.323Z,5.20
2024-05-09T02:11:15.165Z,5.20
2024-05-09T02:12:14.137Z,4.90
2024-05-09T02:13:14.039Z,5.70
2024-05-09T02:14:14.052Z,4.90
2024-05-09T02:15:14.033Z,5.50
2024-05-09T02:16:14.021Z,5.10
2024-05-09T02:17:14.172Z,5.40
2024-05-09T02:18:14.488Z,5.20
2024-05-09T02:19:14.130Z,4.60
2024-05-09T02:20:22.429Z,5.00
2024-05-09T02:21:15.000Z,5.50
2024-05-09T02:22:13.945Z,5.30
2024-05-09T02:23:14.116Z,6.00
2024-05-09T02:24:13.946Z,5.30
2024-05-09T02:25:13.938Z,6.00
2024-05-09T02:26:13.966Z,5.10
2024-05-09T02:27:13.907Z,5.60
2024-05-09T02:28:13.892Z,5.60
2024-05-09T02:29:13.910Z,5.70
2024-05-09T02:30:22.498Z,5.60
2024-05-09T02:31:14.842Z,5.60
2024-05-09T02:32:14.100Z,6.00
2024-05-09T02:33:14.641Z,5.50
2024-05-09T02:34:13.915Z,5.20
2024-05-09T02:35:13.909Z,6.00
2024-05-09T02:36:13.822Z,5.80
2024-05-09T02:37:13.790Z,5.50
2024-05-09T02:38:13.935Z,5.50
2024-05-09T02:39:13.764Z,5.30
2024-05-09T02:40:15.113Z,5.60
2024-05-09T02:41:14.807Z,6.00
2024-05-09T02:42:13.734Z,5.40
2024-05-09T02:43:13.736Z,5.40
2024-05-09T02:44:13.747Z,6.00
2024-05-09T02:45:13.709Z,5.30
2024-05-09T02:46:13.694Z,5.60
2024-05-09T02:47:13.771Z,5.60
2024-05-09T02:48:14.366Z,5.50
2024-05-09T02:49:13.826Z,5.60
2024-05-09T02:50:19.381Z,5.10
2024-05-09T02:51:14.652Z,5.10
2024-05-09T02:52:13.654Z,5.60
2024-05-09T02:53:14.297Z,5.30
2024-05-09T02:54:13.616Z,5.60
2024-05-09T02:55:13.586Z,5.30
2024-05-09T02:56:13.605Z,5.30
2024-05-09T02:57:13.588Z,5.00
2024-05-09T02:58:13.564Z,5.00
2024-05-09T02:59:13.607Z,5.50
2024-05-09T03:00:19.046Z,4.80
2024-05-09T03:01:14.609Z,5.50
2024-05-09T03:02:13.621Z,5.50
2024-05-09T03:03:15.397Z,5.30
2024-05-09T03:04:13.582Z,5.60
2024-05-09T03:05:13.598Z,4.80
2024-05-09T03:06:13.502Z,5.60
2024-05-09T03:07:13.474Z,5.20
2024-05-09T03:08:13.587Z,5.60
2024-05-09T03:09:13.444Z,5.00
2024-05-09T03:10:21.894Z,4.90
2024-05-09T03:11:14.537Z,5.90
2024-05-09T03:12:13.557Z,5.00
2024-05-09T03:13:14.938Z,5.50
2024-05-09T03:14:13.424Z,5.00
2024-05-09T03:15:13.381Z,5.10
2024-05-09T03:16:13.407Z,4.80
2024-05-09T03:17:13.407Z,5.10
2024-05-09T03:18:13.899Z,5.80
2024-05-09T03:19:13.584Z,4.70
2024-05-09T03:20:20.514Z,5.20
2024-05-09T03:21:14.370Z,5.20
2024-05-09T03:22:13.305Z,4.90
2024-05-09T03:23:13.470Z,5.30
2024-05-09T03:24:13.290Z,4.70
2024-05-09T03:25:13.293Z,4.80
2024-05-09T03:26:13.317Z,4.80
2024-05-09T03:27:13.258Z,5.00
2024-05-09T03:28:13.265Z,4.70
2024-05-09T03:29:13.278Z,4.40
2024-05-09T03:30:25.624Z,5.10
2024-05-09T03:31:14.210Z,5.20
2024-05-09T03:32:13.306Z,4.20
2024-05-09T03:33:14.405Z,4.70
2024-05-09T03:34:13.240Z,4.90
2024-05-09T03:35:13.239Z,5.00
2024-05-09T03:36:13.156Z,4.70
2024-05-09T03:37:13.146Z,4.80
2024-05-09T03:38:13.323Z,4.90
2024-05-09T03:39:13.160Z,4.80
2024-05-09T03:40:20.284Z,5.10
2024-05-09T03:41:14.184Z,4.70
2024-05-09T03:42:13.088Z,4.50
2024-05-09T03:43:13.141Z,4.60
2024-05-09T03:44:13.138Z,4.70
2024-05-09T03:45:13.071Z,4.60
2024-05-09T03:46:13.057Z,5.10
2024-05-09T03:47:13.094Z,4.70
2024-05-09T03:48:13.342Z,4.70
2024-05-09T03:49:13.138Z,4.90
2024-05-09T03:50:21.921Z,5.40
2024-05-09T03:51:14.007Z,4.80
2024-05-09T03:52:12.996Z,4.70
2024-05-09T03:53:13.116Z,4.90
2024-05-09T03:54:12.962Z,5.00
2024-05-09T03:55:12.966Z,4.60
2024-05-09T03:56:13.053Z,4.70
2024-05-09T03:57:12.963Z,4.80
2024-05-09T03:58:13.134Z,4.80
2024-05-09T03:59:12.966Z,5.30
2024-05-09T04:00:18.217Z,5.10
2024-05-09T04:01:13.946Z,4.70
2024-05-09T04:02:13.026Z,4.80
2024-05-09T04:03:13.582Z,4.50
2024-05-09T04:04:12.931Z,4.40
2024-05-09T04:05:12.903Z,4.60
2024-05-09T04:06:12.839Z,4.40
2024-05-09T04:07:12.851Z,4.60
2024-05-09T04:08:12.951Z,4.50
2024-05-09T04:09:12.815Z,4.70
2024-05-09T04:10:21.081Z,4.90
2024-05-09T04:11:13.927Z,4.90
2024-05-09T04:12:12.886Z,4.90
2024-05-09T04:13:12.768Z,4.50
2024-05-09T04:14:12.802Z,4.30
2024-05-09T04:15:13.699Z,4.40
2024-05-09T04:16:12.764Z,4.30
2024-05-09T04:17:12.815Z,4.50
2024-05-09T04:18:12.898Z,4.60
2024-05-09T04:19:12.844Z,4.50
2024-05-09T04:20:21.383Z,4.70
2024-05-09T04:21:13.718Z,4.60
2024-05-09T04:22:12.669Z,4.40
2024-05-09T04:23:13.540Z,5.10
2024-05-09T04:24:12.648Z,4.40
2024-05-09T04:25:12.690Z,4.30
2024-05-09T04:26:12.704Z,4.40
2024-05-09T04:27:12.649Z,4.70
2024-05-09T04:28:12.720Z,4.90
2024-05-09T04:29:12.696Z,4.60
2024-05-09T04:30:21.584Z,4.10
2024-05-09T04:31:13.533Z,4.70
2024-05-09T04:32:12.698Z,4.60
2024-05-09T04:33:14.186Z,4.40
2024-05-09T04:34:12.946Z,4.60
2024-05-09T04:35:12.528Z,4.70
2024-05-09T04:36:12.476Z,5.10
2024-05-09T04:37:12.471Z,4.60
2024-05-09T04:38:12.788Z,4.90
2024-05-09T04:39:12.538Z,5.30
2024-05-09T04:40:24.010Z,4.50
2024-05-09T04:41:13.509Z,4.70
2024-05-09T04:42:12.466Z,5.10
2024-05-09T04:43:12.456Z,4.70
2024-05-09T04:44:12.547Z,4.60
2024-05-09T04:45:12.432Z,4.90
2024-05-09T04:46:12.415Z,4.90
2024-05-09T04:47:12.537Z,5.20
2024-05-09T04:48:12.581Z,4.80
2024-05-09T04:49:12.489Z,5.20
2024-05-09T04:50:17.867Z,5.10
2024-05-09T04:51:13.431Z,4.80
2024-05-09T04:52:12.369Z,4.70
2024-05-09T04:53:12.406Z,4.80
2024-05-09T04:54:25.766Z,5.20
2024-05-09T04:55:13.326Z,5.20
2024-05-09T04:56:12.418Z,5.20
2024-05-09T04:57:12.328Z,5.10
2024-05-09T04:58:12.397Z,4.70
2024-05-09T04:59:12.366Z,4.20
2024-05-09T05:00:14.980Z,5.10
2024-05-09T05:01:13.307Z,5.20
2024-05-09T05:02:12.336Z,4.70
2024-05-09T05:03:14.811Z,5.20
2024-05-09T05:04:12.344Z,5.20
2024-05-09T05:05:12.398Z,4.70
2024-05-09T05:06:12.233Z,4.80
2024-05-09T05:07:12.220Z,5.20
2024-05-09T05:08:12.575Z,5.60
2024-05-09T05:09:12.191Z,5.00
2024-05-09T05:10:17.892Z,5.10
2024-05-09T05:11:13.397Z,4.70
2024-05-09T05:12:12.395Z,5.30
2024-05-09T05:13:12.139Z,5.40
2024-05-09T05:14:12.187Z,4.40
2024-05-09T05:15:12.136Z,5.10
2024-05-09T05:16:12.118Z,5.20
2024-05-09T05:17:12.267Z,5.10
2024-05-09T05:18:12.156Z,5.10
2024-05-09T05:19:15.085Z,4.90
2024-05-09T05:20:15.257Z,5.00
2024-05-09T05:21:13.037Z,5.10
2024-05-09T05:22:12.001Z,5.00
2024-05-09T05:23:12.033Z,5.70
2024-05-09T05:24:12.031Z,4.90
2024-05-09T05:25:12.022Z,4.70
2024-05-09T05:26:12.026Z,5.40
2024-05-09T05:27:12.025Z,5.50
2024-05-09T05:28:11.941Z,5.40
2024-05-09T05:29:12.023Z,5.40
2024-05-09T05:30:17.856Z,5.20
2024-05-09T05:31:13.017Z,5.80
2024-05-09T05:32:12.099Z,6.30
2024-05-09T05:33:12.151Z,6.20
2024-05-09T05:34:11.991Z,6.10
2024-05-09T05:35:12.005Z,5.40
2024-05-09T05:36:11.924Z,5.40
2024-05-09T05:37:11.887Z,5.30
2024-05-09T05:38:11.956Z,5.70
2024-05-09T05:39:11.862Z,6.10
2024-05-09T05:40:17.363Z,5.50
2024-05-09T05:41:12.978Z,5.70
2024-05-09T05:42:11.860Z,6.00
2024-05-09T05:43:11.824Z,6.30
2024-05-09T05:44:11.877Z,6.30
2024-05-09T05:45:11.822Z,5.90
2024-05-09T05:46:11.804Z,6.00
2024-05-09T05:47:11.873Z,5.80
2024-05-09T05:48:11.892Z,5.30
2024-05-09T05:49:11.867Z,6.10
2024-05-09T05:50:20.905Z,6.00
2024-05-09T05:51:12.888Z,6.00
2024-05-09T05:52:11.774Z,5.90
2024-05-09T05:53:11.703Z,5.40
2024-05-09T05:54:11.664Z,5.90
2024-05-09T05:55:11.672Z,5.60
2024-05-09T05:56:11.682Z,5.50
2024-05-09T05:57:11.626Z,5.80
2024-05-09T05:58:11.639Z,6.00
2024-05-09T05:59:13.401Z,6.40
2024-05-09T06:00:15.107Z,5.40
2024-05-09T06:01:12.645Z,5.80
2024-05-09T06:02:11.631Z,5.70
2024-05-09T06:03:12.312Z,5.50
2024-05-09T06:04:11.658Z,5.80
2024-05-09T06:05:11.637Z,5.80
2024-05-09T06:06:11.588Z,5.60
2024-05-09T06:07:11.507Z,6.10
2024-05-09T06:08:11.670Z,5.90
2024-05-09T06:09:11.490Z,6.00
2024-05-09T06:10:17.398Z,5.70
2024-05-09T06:11:12.517Z,5.50
2024-05-09T06:12:11.677Z,6.30
2024-05-09T06:13:12.029Z,5.10
2024-05-09T06:14:11.510Z,5.80
2024-05-09T06:15:11.432Z,5.60
2024-05-09T06:16:11.421Z,5.60
2024-05-09T06:17:11.702Z,5.30
2024-05-09T06:18:12.530Z,5.90
2024-05-09T06:19:11.478Z,5.80
2024-05-09T06:20:20.177Z,5.10
2024-05-09T06:21:12.408Z,5.80
2024-05-09T06:22:11.362Z,5.40
2024-05-09T06:23:11.534Z,5.40
2024-05-09T06:24:11.323Z,5.80
2024-05-09T06:25:11.315Z,6.10
2024-05-09T06:26:11.318Z,5.60
2024-05-09T06:27:11.322Z,5.90
2024-05-09T06:28:11.435Z,5.50
2024-05-09T06:29:11.319Z,5.50
2024-05-09T06:30:24.821Z,6.00
2024-05-09T06:31:12.276Z,5.30
2024-05-09T06:32:11.385Z,5.80
2024-05-09T06:33:13.262Z,4.90
2024-05-09T06:34:11.304Z,5.30
2024-05-09T06:35:11.248Z,6.40
2024-05-09T06:36:11.219Z,5.80
2024-05-09T06:37:11.187Z,5.30
2024-05-09T06:38:11.787Z,5.00
2024-05-09T06:39:11.169Z,5.80
2024-05-09T06:40:12.562Z,5.20
2024-05-09T06:41:11.198Z,5.50
2024-05-09T06:42:11.153Z,5.20
2024-05-09T06:43:11.152Z,5.40
2024-05-09T06:44:11.176Z,5.50
2024-05-09T06:45:11.128Z,5.20
2024-05-09T06:46:11.093Z,5.80
2024-05-09T06:47:11.181Z,4.70
2024-05-09T06:48:11.401Z,5.50
2024-05-09T06:49:11.328Z,5.50
2024-05-09T06:50:19.639Z,5.50
2024-05-09T06:51:12.146Z,5.80
2024-05-09T06:52:11.034Z,5.20
2024-05-09T06:53:11.055Z,5.40
2024-05-09T06:54:11.014Z,5.90
2024-05-09T06:55:11.020Z,5.20
2024-05-09T06:56:11.052Z,5.10
2024-05-09T06:57:10.976Z,5.00
2024-05-09T06:58:10.973Z,5.20
2024-05-09T06:59:11.061Z,5.50
2024-05-09T07:00:15.641Z,5.80
2024-05-09T07:01:11.945Z,5.60
2024-05-09T07:02:10.979Z,6.00
2024-05-09T07:03:12.467Z,5.80
2024-05-09T07:04:11.187Z,5.30
2024-05-09T07:05:10.960Z,5.20
2024-05-09T07:06:10.911Z,5.30
2024-05-09T07:07:10.883Z,5.30
2024-05-09T07:08:11.005Z,5.60
2024-05-09T07:09:10.866Z,6.00
2024-05-09T07:10:17.770Z,5.60
2024-05-09T07:11:12.071Z,5.30
2024-05-09T07:12:10.902Z,5.40
2024-05-09T07:13:10.840Z,5.80
2024-05-09T07:14:10.851Z,5.40
2024-05-09T07:15:10.787Z,5.10
2024-05-09T07:16:10.796Z,5.50
2024-05-09T07:17:10.829Z,5.50
2024-05-09T07:18:11.092Z,5.10
2024-05-09T07:19:11.093Z,5.40
2024-05-09T07:20:16.193Z,5.40
2024-05-09T07:21:11.893Z,5.40
2024-05-09T07:22:10.725Z,5.50
2024-05-09T07:23:11.146Z,5.50
2024-05-09T07:24:10.692Z,5.20
2024-05-09T07:25:10.707Z,4.80
2024-05-09T07:26:10.706Z,4.40
2024-05-09T07:27:10.680Z,5.00
2024-05-09T07:28:10.654Z,5.10
2024-05-09T07:29:10.643Z,5.10
2024-05-09T07:31:10.624Z,4.80
2024-05-09T07:32:10.654Z,4.90
2024-05-09T07:33:10.761Z,4.60
2024-05-09T07:34:10.703Z,4.70
2024-05-09T07:35:10.631Z,3.70
2024-05-09T07:36:10.567Z,4.80
2024-05-09T07:37:10.578Z,4.60
2024-05-09T07:38:10.613Z,4.30
2024-05-09T07:39:10.536Z,4.70
2024-05-09T07:40:17.672Z,4.50
2024-05-09T07:41:11.594Z,5.00
2024-05-09T07:42:10.526Z,4.70
2024-05-09T07:43:10.498Z,4.50
2024-05-09T07:44:10.496Z,4.30
2024-05-09T07:45:29.648Z,4.60
2024-05-09T07:47:13.966Z,4.50
2024-05-09T07:48:27.556Z,4.10
2024-05-09T07:49:44.911Z,4.20
2024-05-09T07:50:53.872Z,4.40
2024-05-09T07:53:29.248Z,5.20
2024-05-09T07:53:37.151Z,4.60
2024-05-09T07:54:11.624Z,4.50
2024-05-09T07:55:10.584Z,4.60
2024-05-09T07:56:11.761Z,4.30
2024-05-09T07:57:10.419Z,4.80
2024-05-09T07:58:10.372Z,4.10
2024-05-09T07:59:10.318Z,4.30
2024-05-09T08:00:14.303Z,4.10
2024-05-09T08:01:10.425Z,3.80
2024-05-09T08:02:10.510Z,3.80
2024-05-09T08:03:10.375Z,3.70
2024-05-09T08:04:10.340Z,4.30
2024-05-09T08:05:10.344Z,3.80
2024-05-09T08:06:10.251Z,4.30
2024-05-09T08:07:10.318Z,4.10
2024-05-09T08:08:31.243Z,4.40
2024-05-09T08:09:13.904Z,4.10
2024-05-09T08:10:15.252Z,4.40
2024-05-09T08:11:11.300Z,4.20
2024-05-09T08:12:10.177Z,4.40
2024-05-09T08:13:10.254Z,3.70
2024-05-09T08:14:10.198Z,4.10
2024-05-09T08:15:10.151Z,3.90
2024-05-09T08:16:10.426Z,3.50
2024-05-09T08:17:10.158Z,4.10
2024-05-09T08:18:10.406Z,3.80
2024-05-09T08:19:10.203Z,3.90
2024-05-09T08:20:11.423Z,4.00
2024-05-09T08:21:10.117Z,3.80
2024-05-09T08:22:10.161Z,3.70
2024-05-09T08:23:10.096Z,3.60
2024-05-09T08:24:10.072Z,3.40
2024-05-09T08:25:11.903Z,3.60
2024-05-09T08:26:10.025Z,3.80
2024-05-09T08:27:10.041Z,3.60
2024-05-09T08:28:10.115Z,3.70
2024-05-09T08:29:10.001Z,3.80
2024-05-09T08:30:18.564Z,3.30
2024-05-09T08:31:11.072Z,3.20
2024-05-09T08:32:10.030Z,3.30
2024-05-09T08:33:10.084Z,3.30
2024-05-09T08:34:10.184Z,3.40
2024-05-09T08:35:09.962Z,3.20
2024-05-09T08:36:09.921Z,3.60
2024-05-09T08:37:15.515Z,2.80
2024-05-09T08:38:11.055Z,3.40
2024-05-09T08:39:09.904Z,3.40
2024-05-09T08:40:16.679Z,3.10
2024-05-09T08:41:10.876Z,3.40
2024-05-09T08:42:09.874Z,3.20
2024-05-09T08:43:11.894Z,3.40
2024-05-09T08:44:09.849Z,3.30
2024-05-09T08:45:09.833Z,2.90
2024-05-09T08:46:09.859Z,3.20
2024-05-09T08:47:09.944Z,3.20
2024-05-09T08:48:09.911Z,3.30
2024-05-09T08:49:10.038Z,3.00
2024-05-09T08:50:19.955Z,3.20
2024-05-09T08:51:10.791Z,4.40
2024-05-09T08:52:09.988Z,3.40
2024-05-09T08:53:09.755Z,3.20
2024-05-09T08:54:09.753Z,3.40
2024-05-09T08:55:09.917Z,3.20
2024-05-09T08:56:09.744Z,3.20
2024-05-09T08:57:09.713Z,3.20
2024-05-09T08:58:09.794Z,3.40
2024-05-09T08:59:09.690Z,3.20
2024-05-09T09:00:14.835Z,3.20
2024-05-09T09:01:10.742Z,3.50
2024-05-09T09:02:09.798Z,3.20
2024-05-09T09:03:09.766Z,3.30
2024-05-09T09:04:09.803Z,3.30
2024-05-09T09:05:09.909Z,3.40
2024-05-09T09:06:09.639Z,3.60
2024-05-09T09:07:09.698Z,3.70
2024-05-09T09:08:09.586Z,3.70
2024-05-09T09:09:09.586Z,3.60
2024-05-09T09:10:12.959Z,3.60
2024-05-09T09:11:10.640Z,3.40
2024-05-09T09:12:10.726Z,3.30
2024-05-09T09:13:10.056Z,3.20
2024-05-09T09:14:09.538Z,2.90
2024-05-09T09:15:09.535Z,3.10
2024-05-09T09:16:09.572Z,3.20
2024-05-09T09:17:09.592Z,3.00
2024-05-09T09:18:12.257Z,3.20
2024-05-09T09:19:09.656Z,3.00
2024-05-09T09:20:14.332Z,3.50
2024-05-09T09:21:10.454Z,3.30
2024-05-09T09:22:09.503Z,3.30
2024-05-09T09:23:09.443Z,3.10
2024-05-09T09:24:10.070Z,2.80
2024-05-09T09:25:09.580Z,3.20
2024-05-09T09:26:09.405Z,3.20
2024-05-09T09:27:09.389Z,3.40
2024-05-09T09:28:09.803Z,2.80
2024-05-09T09:29:09.390Z,3.40
2024-05-09T09:30:22.856Z,3.50
2024-05-09T09:31:10.410Z,2.70
2024-05-09T09:32:09.336Z,3.40
2024-05-09T09:33:09.575Z,3.30
2024-05-09T09:34:09.536Z,3.50
2024-05-09T09:35:09.363Z,3.50
2024-05-09T09:36:11.578Z,6.00
2024-05-09T09:37:09.593Z,3.10
2024-05-09T09:38:09.307Z,3.10
2024-05-09T09:39:09.287Z,2.90
2024-05-09T09:40:12.878Z,3.30
2024-05-09T09:41:09.334Z,3.00
2024-05-09T09:42:09.245Z,3.00
2024-05-09T09:43:09.339Z,3.10
2024-05-09T09:44:09.230Z,3.10
2024-05-09T09:45:09.234Z,3.10
2024-05-09T09:46:12.429Z,2.80
2024-05-09T09:47:09.241Z,3.30
2024-05-09T09:48:09.277Z,2.90
2024-05-09T09:49:09.451Z,2.90
2024-05-09T09:50:14.309Z,3.00
2024-05-09T09:51:10.150Z,3.20
2024-05-09T09:52:11.218Z,3.00
2024-05-09T09:53:09.139Z,2.90
2024-05-09T09:54:09.128Z,3.00
2024-05-09T09:55:09.250Z,2.80
2024-05-09T09:56:09.189Z,3.10
2024-05-09T09:57:09.113Z,2.70
2024-05-09T09:58:11.983Z,3.00
2024-05-09T09:59:09.075Z,2.60
2024-05-09T10:00:11.810Z,2.60
2024-05-09T10:01:10.214Z,2.40
2024-05-09T10:02:09.465Z,2.70
2024-05-09T10:03:09.108Z,2.90
2024-05-09T10:04:09.141Z,2.90
2024-05-09T10:05:09.097Z,2.70
2024-05-09T10:06:09.124Z,2.70
2024-05-09T10:07:09.144Z,2.70
2024-05-09T10:08:08.981Z,2.60
2024-05-09T10:09:08.972Z,2.50
2024-05-09T10:10:11.035Z,2.60
2024-05-09T10:11:09.039Z,3.20
2024-05-09T10:12:09.529Z,2.70
2024-05-09T10:13:09.184Z,2.90
2024-05-09T10:14:08.924Z,2.60
2024-05-09T10:15:08.932Z,3.00
2024-05-09T10:16:09.125Z,2.90
2024-05-09T10:17:08.905Z,2.80
2024-05-09T10:18:09.021Z,2.90
2024-05-09T10:19:08.957Z,2.60
2024-05-09T10:20:14.897Z,2.80
2024-05-09T10:21:09.865Z,3.30
2024-05-09T10:22:09.046Z,2.80
2024-05-09T10:23:08.830Z,2.80
2024-05-09T10:24:08.817Z,3.30
2024-05-09T10:25:08.818Z,3.30
2024-05-09T10:26:08.870Z,3.30
2024-05-09T10:27:08.782Z,2.80
2024-05-09T10:28:08.917Z,2.70
2024-05-09T10:29:08.775Z,3.00
2024-05-09T10:30:14.427Z,2.70
2024-05-09T10:31:09.919Z,2.80
2024-05-09T10:32:08.728Z,3.00
2024-05-09T10:33:08.757Z,2.70
2024-05-09T10:34:08.901Z,3.00
2024-05-09T10:35:08.790Z,2.60
2024-05-09T10:36:08.682Z,2.50
2024-05-09T10:37:08.703Z,2.60
2024-05-09T10:38:08.695Z,2.80
2024-05-09T10:39:08.828Z,2.60
2024-05-09T10:40:14.251Z,5.30
2024-05-09T10:41:09.633Z,4.10
2024-05-09T10:42:08.621Z,3.00
2024-05-09T10:43:08.671Z,2.90
2024-05-09T10:44:08.587Z,3.30
2024-05-09T10:45:08.589Z,4.00
2024-05-09T10:46:08.911Z,3.20
2024-05-09T10:47:08.615Z,2.80
2024-05-09T10:48:08.722Z,2.90
2024-05-09T10:49:08.719Z,3.00
2024-05-09T10:50:18.054Z,2.70
2024-05-09T10:51:09.604Z,2.50
2024-05-09T10:52:08.861Z,3.00
2024-05-09T10:53:08.541Z,2.70
2024-05-09T10:54:08.486Z,2.80
2024-05-09T10:55:08.524Z,2.80
2024-05-09T10:56:08.495Z,2.70
2024-05-09T10:57:08.486Z,2.50
2024-05-09T10:58:08.637Z,2.50
2024-05-09T10:59:08.445Z,3.00
2024-05-09T11:00:15.599Z,2.70
2024-05-09T11:01:09.530Z,2.50
2024-05-09T11:02:08.769Z,2.70
2024-05-09T11:03:08.435Z,2.50
2024-05-09T11:04:08.584Z,2.50
2024-05-09T11:05:08.465Z,2.30
2024-05-09T11:06:08.364Z,2.90
2024-05-09T11:07:08.437Z,2.80
2024-05-09T11:08:08.337Z,3.00
2024-05-09T11:09:08.335Z,2.70
2024-05-09T11:10:12.348Z,2.60
2024-05-09T11:11:08.941Z,2.30
2024-05-09T11:12:08.419Z,2.20
2024-05-09T11:13:08.468Z,2.30
2024-05-09T11:14:08.314Z,2.70
2024-05-09T11:15:08.288Z,2.60
2024-05-09T11:16:08.387Z,2.60
2024-05-09T11:17:08.327Z,2.40
2024-05-09T11:18:08.351Z,2.10
2024-05-09T11:19:08.355Z,2.60
2024-05-09T11:20:13.806Z,2.30
2024-05-09T11:21:09.269Z,2.10
2024-05-09T11:22:08.387Z,2.40
2024-05-09T11:23:08.218Z,2.70
2024-05-09T11:24:11.169Z,2.70
2024-05-09T11:25:08.288Z,2.60
2024-05-09T11:26:08.172Z,2.20
2024-05-09T11:27:08.158Z,2.00
2024-05-09T11:28:08.175Z,2.50
2024-05-09T11:29:08.139Z,2.50
2024-05-09T11:30:14.195Z,2.60
2024-05-09T11:31:09.962Z,2.30
2024-05-09T11:32:08.255Z,2.50
2024-05-09T11:33:08.159Z,2.20
2024-05-09T11:34:08.106Z,2.30
2024-05-09T11:35:08.098Z,2.60
2024-05-09T11:36:08.146Z,2.80
2024-05-09T11:37:08.075Z,3.00
2024-05-09T11:38:08.033Z,2.80
2024-05-09T11:39:08.047Z,2.40
2024-05-09T11:40:13.890Z,2.00
2024-05-09T11:41:09.065Z,2.00
2024-05-09T11:42:08.020Z,2.40
2024-05-09T11:43:08.043Z,2.50
2024-05-09T11:44:08.001Z,2.30
2024-05-09T11:45:07.992Z,2.10
2024-05-09T11:46:08.004Z,2.30
2024-05-09T11:47:08.047Z,2.10
2024-05-09T11:48:08.030Z,2.50
2024-05-09T11:49:08.157Z,2.40
2024-05-09T11:50:10.256Z,2.50
2024-05-09T11:51:08.935Z,2.30
2024-05-09T11:52:08.167Z,2.50
2024-05-09T11:53:07.940Z,2.10
2024-05-09T11:54:07.878Z,2.00
2024-05-09T11:55:07.967Z,2.00
2024-05-09T11:56:07.858Z,1.80
2024-05-09T11:57:07.848Z,1.70
2024-05-09T11:58:07.914Z,2.00
2024-05-09T11:59:07.834Z,2.20
2024-05-09T12:00:09.678Z,1.90
2024-05-09T12:01:07.923Z,2.10
2024-05-09T12:02:08.009Z,1.50
2024-05-09T12:03:07.815Z,2.20
2024-05-09T12:04:07.940Z,2.10
2024-05-09T12:05:07.824Z,2.00
2024-05-09T12:06:07.838Z,2.30
2024-05-09T12:07:09.700Z,2.10
2024-05-09T12:08:07.736Z,2.00
2024-05-09T12:09:07.723Z,2.20
2024-05-09T12:10:11.949Z,2.20
2024-05-09T12:11:08.822Z,1.90
2024-05-09T12:12:07.778Z,2.00
2024-05-09T12:13:08.075Z,2.00
2024-05-09T12:14:07.684Z,2.20
2024-05-09T12:15:07.668Z,2.20
2024-05-09T12:16:07.726Z,2.10
2024-05-09T12:17:07.728Z,2.00
2024-05-09T12:18:08.335Z,1.70
2024-05-09T12:19:07.743Z,2.00
2024-05-09T12:20:14.080Z,2.10
2024-05-09T12:21:08.621Z,2.40
2024-05-09T12:22:07.711Z,1.90
2024-05-09T12:23:08.394Z,1.90
2024-05-09T12:24:07.576Z,1.90
2024-05-09T12:25:07.635Z,2.00
2024-05-09T12:26:07.568Z,2.10
2024-05-09T12:27:07.546Z,2.80
2024-05-09T12:28:07.637Z,2.10
2024-05-09T12:29:07.514Z,2.30
2024-05-09T12:30:11.278Z,2.20
2024-05-09T12:31:07.581Z,2.10
2024-05-09T12:32:07.657Z,2.20
2024-05-09T12:33:07.909Z,2.20
2024-05-09T12:34:07.551Z,2.00
2024-05-09T12:35:07.491Z,2.10
2024-05-09T12:36:07.449Z,2.40
2024-05-09T12:37:07.495Z,2.40
2024-05-09T12:38:07.469Z,2.00
2024-05-09T12:39:07.419Z,2.20
2024-05-09T12:40:15.805Z,2.00
2024-05-09T12:41:08.411Z,1.90
2024-05-09T12:42:07.425Z,2.20
2024-05-09T12:43:08.331Z,2.00
2024-05-09T12:44:07.398Z,2.30
2024-05-09T12:45:07.375Z,2.40
2024-05-09T12:46:07.397Z,2.10
2024-05-09T12:47:07.344Z,1.80
2024-05-09T12:48:07.714Z,2.00
2024-05-09T12:49:07.694Z,2.20
2024-05-09T12:50:13.407Z,2.40
2024-05-09T12:51:08.287Z,2.10
2024-05-09T12:52:07.467Z,2.20
2024-05-09T12:53:07.276Z,2.00
2024-05-09T12:54:07.288Z,2.50
2024-05-09T12:55:07.315Z,2.00
2024-05-09T12:57:07.230Z,2.70
2024-05-09T12:58:07.479Z,2.70
2024-05-09T12:59:07.242Z,2.20
2024-05-09T13:00:09.330Z,2.20
2024-05-09T13:01:07.242Z,2.30
2024-05-09T13:02:07.516Z,2.20
2024-05-09T13:03:07.675Z,2.10
2024-05-09T13:04:07.285Z,2.20
2024-05-09T13:05:07.409Z,1.80
2024-05-09T13:06:07.174Z,2.10
2024-05-09T13:07:08.060Z,2.00
2024-05-09T13:08:07.130Z,1.90
2024-05-09T13:09:07.102Z,2.00
2024-05-09T13:10:11.602Z,1.90
2024-05-09T13:11:08.147Z,2.00
2024-05-09T13:12:07.122Z,2.20
2024-05-09T13:13:07.151Z,2.10
2024-05-09T13:14:07.143Z,1.80
2024-05-09T13:15:07.053Z,2.20
2024-05-09T13:16:07.118Z,2.30
2024-05-09T13:17:07.086Z,1.90
2024-05-09T13:18:07.254Z,2.10
2024-05-09T13:19:07.057Z,2.00
2024-05-09T13:20:09.311Z,2.10
2024-05-09T13:21:08.001Z,1.90
2024-05-09T13:22:07.144Z,2.20
2024-05-09T13:23:08.208Z,2.20